Time;durP1;ratioP1;P1;durP2;ratioP2;P2;SDS_P1;SDS_P2;PMS_P1;PMS_P2;Temp;Humidity;BMP_temperature;BMP_pressure;BME280_temperature;BME280_humidity;BME280_pressure;Samples;Min_cycle;Max_cycle;Signal;HPM_P1;HPM_P2
2022/12/09 00:00:43;;;;;;;33.97;20.07;;;;;;;1.81;88.74;95120.51;1703745;84;21555;-71
2022/12/09 00:03:11;;;;;;;34.73;19.97;;;;;;;1.80;88.88;95123.55;1703953;84;21089;-72
2022/12/09 00:05:40;;;;;;;37.67;21.33;;;;;;;1.79;88.72;95128.72;1703851;84;21097;-71
2022/12/09 00:08:06;;;;;;;33.03;19.03;;;;;;;1.79;88.91;95126.12;1677799;84;21037;-72
2022/12/09 00:10:32;;;;;;;32.90;18.90;;;;;;;;;;1674532;86;21508;-71
2022/12/09 00:12:59;;;;;;;42.23;22.83;;;;;;;1.85;89.14;95123.59;1674818;86;21005;-71
2022/12/09 00:15:25;;;;;;;41.87;23.03;;;;;;;1.85;89.12;95120.98;1674541;86;21048;-71
2022/12/09 00:17:52;;;;;;;34.13;19.50;;;;;;;1.85;88.86;95124.89;1674866;85;21008;-71
2022/12/09 00:20:18;;;;;;;33.80;20.50;;;;;;;1.85;89.37;95120.55;1674564;84;21029;-71
2022/12/09 00:22:45;;;;;;;38.33;21.53;;;;;;;1.89;89.48;95117.52;1674827;84;21001;-71
2022/12/09 00:25:12;;;;;;;42.77;22.87;;;;;;;1.88;89.30;95125.77;1674440;86;21065;-71
2022/12/09 00:27:38;;;;;;;45.63;23.67;;;;;;;1.93;89.49;95133.61;1674476;84;21080;-71
2022/12/09 00:30:07;;;;;;;35.23;19.37;;;;;;;1.94;89.05;95136.64;1674358;84;21077;-71
2022/12/09 00:32:34;;;;;;;91.67;39.23;;;;;;;1.92;88.95;95142.29;1674830;84;21025;-72
2022/12/09 00:35:00;;;;;;;65.37;28.87;;;;;;;1.89;89.17;95134.03;1674811;84;21518;-71
2022/12/09 00:37:27;;;;;;;55.87;26.60;;;;;;;1.87;89.53;95126.64;1674458;84;21056;-71
2022/12/09 00:39:55;;;;;;;31.20;17.13;;;;;;;1.93;89.87;95129.70;1674335;84;21041;-72
2022/12/09 00:42:21;;;;;;;83.23;38.90;;;;;;;1.90;89.09;95130.99;1674643;84;21025;-71
2022/12/09 00:44:48;;;;;;;35.30;18.10;;;;;;;1.82;89.24;95134.84;1674821;84;21026;-71
2022/12/09 00:47:14;;;;;;;52.67;25.53;;;;;;;1.79;89.13;95133.52;1674571;84;21005;-71
2022/12/09 00:49:41;;;;;;;37.57;19.20;;;;;;;1.69;89.09;95126.07;1674819;84;21058;-72
2022/12/09 00:52:07;;;;;;;49.57;22.33;;;;;;;1.63;89.03;95133.80;1675257;84;21470;-71
2022/12/09 00:54:34;;;;;;;47.83;23.83;;;;;;;1.50;89.35;95137.17;1675215;84;21025;-71
2022/12/09 00:57:01;;;;;;;34.70;16.47;;;;;;;1.39;89.67;95142.28;1675152;84;21029;-72
2022/12/09 00:59:27;;;;;;;34.90;19.60;;;;;;;1.37;89.50;95145.72;1674917;84;21001;-71
2022/12/09 01:01:54;;;;;;;50.80;24.30;;;;;;;1.35;89.21;95151.33;1674595;84;21017;-71
2022/12/09 01:04:20;;;;;;;28.40;15.80;;;;;;;1.34;89.31;95153.06;1675003;84;21029;-71
2022/12/09 01:06:47;;;;;;;43.37;19.97;;;;;;;1.34;89.15;95151.77;1681443;84;21379;-71
2022/12/09 01:09:13;;;;;;;45.43;22.63;;;;;;;1.24;88.91;95148.20;1701840;84;21012;-71
2022/12/09 01:11:40;;;;;;;27.93;15.80;;;;;;;1.23;89.36;95141.67;1701771;84;21083;-71
2022/12/09 01:14:06;;;;;;;44.93;21.87;;;;;;;1.21;89.33;95133.88;1702258;84;20999;-71
2022/12/09 01:16:34;;;;;;;53.20;24.47;;;;;;;1.18;89.13;95127.77;1701471;84;21012;-70
2022/12/09 01:19:06;;;;;;;22.47;13.07;;;;;;;1.12;89.54;95138.11;1702062;84;21008;-71
2022/12/09 01:21:34;;;;;;;42.67;22.97;;;;;;;1.15;89.53;95132.50;1701752;84;20980;-71
2022/12/09 01:24:08;;;;;;;35.80;19.93;;;;;;;1.10;89.48;95133.32;1702027;84;21003;-71
2022/12/09 01:26:36;;;;;;;30.77;16.10;;;;;;;1.12;89.87;95135.52;1702085;84;21019;-72
2022/12/09 01:29:03;;;;;;;41.60;22.47;;;;;;;1.07;89.26;95139.36;1701865;84;21050;-71
2022/12/09 01:31:30;;;;;;;37.53;18.80;;;;;;;0.99;89.50;95141.88;1701597;84;21044;-71
2022/12/09 01:33:56;;;;;;;34.67;19.40;;;;;;;0.95;89.89;95143.12;1702147;84;21042;-71
2022/12/09 01:36:29;;;;;;;28.17;15.37;;;;;;;0.97;90.09;95137.52;1701843;84;21542;-71
2022/12/09 01:38:59;;;;;;;23.17;13.57;;;;;;;0.94;89.26;95141.39;1702075;84;21023;-71
2022/12/09 01:41:27;;;;;;;32.23;16.53;;;;;;;0.90;88.98;95136.56;1702083;84;20995;-71
2022/12/09 01:44:14;;;;;;;29.77;16.70;;;;;;;0.79;88.73;95140.34;1701868;84;20975;-71
2022/12/09 01:46:42;;;;;;;33.37;18.73;;;;;;;0.71;88.82;95134.20;1701325;84;21127;-71
2022/12/09 01:49:14;;;;;;;33.00;17.37;;;;;;;0.75;89.81;95135.96;1701933;84;21505;-70
2022/12/09 01:51:44;;;;;;;34.87;17.00;;;;;;;0.84;90.32;95136.52;1702015;84;21023;-70
2022/12/09 01:54:11;;;;;;;35.67;18.13;;;;;;;0.93;90.47;95138.33;1702065;84;21017;-70
2022/12/09 01:56:39;;;;;;;33.50;16.60;;;;;;;1.01;90.59;95130.21;1702244;84;21011;-71
2022/12/09 01:59:11;;;;;;;34.70;16.83;;;;;;;1.07;90.48;95134.16;1701907;84;21011;-70
2022/12/09 02:01:40;;;;;;;37.87;17.93;;;;;;;1.12;90.46;95116.02;1701966;84;21450;-70
2022/12/09 02:04:07;;;;;;;28.13;16.13;;;;;;;1.18;90.76;95121.27;1701777;84;21020;-70
2022/12/09 02:06:36;;;;;;;32.37;17.00;;;;;;;1.18;90.16;95116.94;1701784;84;21047;-70
2022/12/09 02:09:05;;;;;;;25.53;15.10;;;;;;;1.15;89.76;95118.64;1704323;84;21036;-70
2022/12/09 02:11:45;;;;;;;24.40;13.03;;;;;;;1.13;89.45;95125.55;1704011;84;21106;-70
2022/12/09 02:14:20;;;;;;;25.70;15.17;;;;;;;1.04;89.38;95125.91;1703661;84;21117;-70
2022/12/09 02:17:06;;;;;;;29.90;17.03;;;;;;;0.98;89.81;95123.66;1704208;84;21073;-70
2022/12/09 02:20:04;;;;;;;33.47;17.17;;;;;;;0.94;89.61;95131.00;1703800;84;21106;-70
2022/12/09 02:22:39;;;;;;;35.67;18.77;;;;;;;0.86;90.57;95132.21;1704283;84;21103;-70
2022/12/09 02:25:18;;;;;;;36.83;18.73;;;;;;;0.85;90.42;95132.61;1698585;84;21160;-71
2022/12/09 02:27:50;;;;;;;39.23;19.47;;;;;;;0.78;91.20;95132.13;1704225;84;21065;-69
2022/12/09 02:30:20;;;;;;;37.80;17.80;;;;;;;0.65;91.86;95131.52;1704293;84;21041;-71
2022/12/09 02:33:09;;;;;;;38.67;20.27;;;;;;;0.61;92.09;95130.63;1704090;84;21017;-71
2022/12/09 02:35:47;;;;;;;40.77;20.77;;;;;;;0.62;92.11;95123.70;1704320;84;21495;-71
2022/12/09 02:38:22;;;;;;;41.80;21.40;;;;;;;0.64;92.06;95125.46;1704368;84;21523;-71
2022/12/09 02:41:02;;;;;;;37.03;18.43;;;;;;;0.70;92.06;95118.59;1704008;84;21061;-71
2022/12/09 02:43:37;;;;;;;37.77;19.67;;;;;;;0.80;92.47;95114.81;1696611;84;21029;-71
2022/12/09 02:46:08;;;;;;;37.93;19.47;;;;;;;0.78;92.01;95115.25;1703276;84;21050;-71
2022/12/09 02:48:40;;;;;;;36.80;18.90;;;;;;;0.80;91.67;95113.95;1704195;84;21507;-71
2022/12/09 02:51:11;;;;;;;38.63;19.53;;;;;;;0.76;91.36;95116.09;1704208;84;21086;-71
2022/12/09 02:53:39;;;;;;;38.23;18.80;;;;;;;0.71;91.11;95121.22;1704115;84;21073;-71
2022/12/09 02:56:08;;;;;;;34.77;18.17;;;;;;;0.74;91.53;95114.75;1699999;84;21021;-71
2022/12/09 02:58:35;;;;;;;38.13;19.67;;;;;;;0.87;92.28;95102.78;1704213;84;21042;-71
2022/12/09 03:01:02;;;;;;;36.50;18.53;;;;;;;0.98;92.23;95109.38;1703918;84;21049;-70
2022/12/09 03:03:32;;;;;;;35.80;18.30;;;;;;;0.98;91.21;95105.08;1704129;84;21048;-71
2022/12/09 03:06:09;;;;;;;36.90;18.93;;;;;;;0.93;90.47;95108.02;1704247;84;20994;-71
2022/12/09 03:08:54;;;;;;;35.23;19.10;;;;;;;0.90;90.82;95099.34;1696781;84;21031;-71
2022/12/09 03:11:23;;;;;;;38.73;19.77;;;;;;;0.94;91.25;95104.59;1702264;84;20968;-72
2022/12/09 03:13:58;;;;;;;38.27;19.23;;;;;;;0.98;90.87;95115.87;1701935;84;20960;-70
2022/12/09 03:16:33;;;;;;;39.13;18.63;;;;;;;1.03;91.31;95111.19;1701762;84;21912;-71
2022/12/09 03:19:20;;;;;;;36.23;19.20;;;;;;;1.01;90.38;95113.33;1701876;84;21055;-71
2022/12/09 03:21:51;;;;;;;38.87;18.83;;;;;;;0.94;89.93;95119.31;1701556;84;21537;-71
2022/12/09 03:24:22;;;;;;;36.83;18.50;;;;;;;0.96;90.51;95121.06;1701791;84;21039;-71
2022/12/09 03:26:50;;;;;;;35.40;18.67;;;;;;;1.00;90.92;95126.72;1701783;84;21023;-71
2022/12/09 03:29:22;;;;;;;34.70;16.90;;;;;;;1.04;90.83;95131.53;1701716;84;20991;-71
2022/12/09 03:31:51;;;;;;;35.67;18.90;;;;;;;0.99;90.02;95130.19;1701801;84;21007;-71
2022/12/09 03:34:23;;;;;;;35.63;18.27;;;;;;;0.93;89.97;95127.94;1701920;84;20987;-71
2022/12/09 03:36:51;;;;;;;39.83;20.57;;;;;;;0.90;90.26;95119.69;1702071;84;21022;-71
2022/12/09 03:39:24;;;;;;;35.40;19.60;;;;;;;0.90;90.51;95109.30;1701922;84;20976;-71
2022/12/09 03:41:55;;;;;;;36.50;19.80;;;;;;;0.91;90.50;95108.86;1702008;84;21019;-71
2022/12/09 03:44:33;;;;;;;41.53;20.73;;;;;;;0.94;90.65;95116.27;1701857;84;20991;-71
2022/12/09 03:47:00;;;;;;;40.37;19.47;;;;;;;0.97;90.78;95120.63;1702122;84;21020;-71
2022/12/09 03:49:26;;;;;;;44.63;20.33;;;;;;;0.94;90.08;95110.22;1701779;84;20998;-71
2022/12/09 03:52:25;;;;;;;43.07;22.17;;;;;;;0.85;89.61;95106.64;1702050;84;21060;-71
2022/12/09 03:55:10;;;;;;;30.30;16.27;;;;;;;0.85;90.12;95110.97;1676335;84;20984;-71
2022/12/09 03:57:41;;;;;;;32.50;17.73;;;;;;;0.84;90.03;95113.14;1701680;84;21561;-71
2022/12/09 04:00:08;;;;;;;32.80;16.83;;;;;;;0.85;90.42;95127.86;1701933;84;21027;-71
2022/12/09 04:02:42;;;;;;;29.47;16.30;;;;;;;0.83;89.90;95130.85;1701793;84;21493;-71
2022/12/09 04:05:09;;;;;;;32.60;18.07;;;;;;;0.72;89.77;95137.23;1701861;84;21467;-71
2022/12/09 04:07:36;;;;;;;31.30;17.93;;;;;;;0.81;90.71;95133.89;1702323;84;21054;-71
2022/12/09 04:10:05;;;;;;;33.40;17.57;;;;;;;0.89;90.58;95133.54;1704175;84;20990;-71
2022/12/09 04:12:32;;;;;;;31.80;16.17;;;;;;;0.97;90.61;95133.63;1704025;84;21135;-72
2022/12/09 04:14:58;;;;;;;31.57;17.47;;;;;;;0.91;89.50;95130.53;1704022;84;21089;-71
2022/12/09 04:17:25;;;;;;;29.27;16.33;;;;;;;0.83;89.28;95130.45;1704131;84;21034;-71
2022/12/09 04:19:51;;;;;;;30.47;16.87;;;;;;;0.88;90.15;95137.41;1704000;84;21038;-71
2022/12/09 04:22:18;;;;;;;33.97;18.23;;;;;;;0.81;89.18;95137.34;1704091;84;21033;-71
2022/12/09 04:24:44;;;;;;;32.93;17.67;;;;;;;0.74;89.28;95135.53;1703693;84;21121;-72
2022/12/09 04:27:11;;;;;;;35.83;18.33;;;;;;;0.73;89.52;95133.80;1704122;84;21053;-71
2022/12/09 04:29:38;;;;;;;96.20;47.40;;;;;;;0.68;89.34;95132.88;1704342;84;20986;-72
2022/12/09 04:32:05;;;;;;;65.20;31.40;;;;;;;0.66;89.46;95131.12;1703852;84;20974;-70
2022/12/09 04:34:32;;;;;;;62.20;31.43;;;;;;;0.64;89.51;95133.25;1704399;84;21018;-70
2022/12/09 04:36:59;;;;;;;72.93;32.57;;;;;;;0.66;89.98;95135.02;1704236;84;21054;-77
2022/12/09 04:39:26;;;;;;;70.53;36.07;;;;;;;0.64;89.96;95139.73;1703929;84;21061;-78
2022/12/09 04:41:52;;;;;;;72.87;33.30;;;;;;;0.69;90.15;95153.22;1704559;84;21002;-78
2022/12/09 04:44:19;;;;;;;70.67;36.67;;;;;;;0.70;89.75;95151.05;1704209;84;21014;-78
2022/12/09 04:46:46;;;;;;;62.63;32.80;;;;;;;0.75;90.02;95155.88;1704081;84;20981;-77
2022/12/09 04:49:13;;;;;;;59.73;29.10;;;;;;;0.77;89.96;95151.58;1703980;84;21042;-78
2022/12/09 04:51:40;;;;;;;65.60;34.23;;;;;;;0.78;89.78;95151.61;1704536;84;21002;-78
2022/12/09 04:54:12;;;;;;;54.80;28.93;;;;;;;0.84;89.97;95161.19;1703641;84;21125;-77
2022/12/09 04:56:39;;;;;;;44.53;25.50;;;;;;;0.92;90.17;95163.87;1704298;84;21524;-78
2022/12/09 04:59:06;;;;;;;42.50;23.97;;;;;;;0.97;89.83;95166.95;1704023;84;21026;-77
2022/12/09 05:01:33;;;;;;;40.60;24.17;;;;;;;0.94;89.22;95163.03;1700148;84;21034;-81
2022/12/09 05:04:00;;;;;;;41.20;22.67;;;;;;;0.89;89.05;95172.94;1704022;84;20994;-77
2022/12/09 05:06:27;;;;;;;39.60;22.60;;;;;;;0.91;89.66;95177.69;1703810;84;21038;-76
2022/12/09 05:08:54;;;;;;;38.50;21.17;;;;;;;0.92;89.74;95175.13;1704212;84;21046;-76
2022/12/09 05:11:22;;;;;;;32.50;18.60;;;;;;;0.97;89.74;95171.29;1704048;84;21528;-76
2022/12/09 05:13:51;;;;;;;35.10;20.63;;;;;;;0.92;89.00;95179.45;1704003;84;21076;-76
2022/12/09 05:16:18;;;;;;;30.07;17.97;;;;;;;0.93;89.66;95165.16;1704188;84;21460;-76
2022/12/09 05:18:47;;;;;;;40.60;23.20;;;;;;;0.96;89.64;95174.32;1704184;84;20970;-76
2022/12/09 05:21:17;;;;;;;32.43;19.13;;;;;;;0.83;88.85;95168.52;1704099;84;21476;-76
2022/12/09 05:23:44;;;;;;;51.73;29.13;;;;;;;0.76;89.09;95174.08;1704227;84;21515;-75
2022/12/09 05:26:14;;;;;;;50.83;28.67;;;;;;;0.70;89.23;95167.93;1704074;84;21046;-76
2022/12/09 05:28:42;;;;;;;40.53;23.07;;;;;;;0.72;89.52;95166.23;1704192;84;21113;-77
2022/12/09 05:31:15;;;;;;;34.27;21.83;;;;;;;0.70;89.55;95173.98;1704451;84;21030;-76
2022/12/09 05:33:43;;;;;;;;;;;;;;;0.67;89.52;95177.84;1706719;84;21030;-76
2022/12/09 05:36:12;;;;;;;28.40;15.77;;;;;;;0.47;90.55;95181.91;1704048;84;20110;-76
2022/12/09 05:38:39;;;;;;;26.07;14.77;;;;;;;0.48;90.23;95184.55;1704236;84;21021;-76
2022/12/09 05:41:06;;;;;;;24.67;13.27;;;;;;;0.35;90.80;95180.02;1704235;84;21033;-76
2022/12/09 05:43:34;;;;;;;26.20;13.43;;;;;;;0.34;90.91;95183.47;1704264;84;21026;-76
2022/12/09 05:46:02;;;;;;;27.93;15.23;;;;;;;0.38;91.23;95182.67;1704339;84;21034;-75
2022/12/09 05:48:28;;;;;;;137.87;74.83;;;;;;;0.43;91.16;95190.09;1704004;84;21109;-75
2022/12/09 05:51:02;;;;;;;221.33;110.77;;;;;;;0.48;91.17;95192.33;1700032;84;21037;-77
2022/12/09 05:53:29;;;;;;;45.88;23.83;;;;;;;0.48;91.05;95191.03;1703988;84;21121;-75
2022/12/09 05:55:56;;;;;;;77.90;48.63;;;;;;;0.52;91.15;95190.20;1704078;84;21328;-76
2022/12/09 05:58:23;;;;;;;68.23;40.97;;;;;;;0.55;91.04;95194.13;1704010;84;21085;-72
2022/12/09 06:00:50;;;;;;;33.50;18.70;;;;;;;0.59;91.07;95197.22;1702699;84;21025;-76
2022/12/09 06:03:17;;;;;;;38.70;25.77;;;;;;;0.66;90.87;95202.08;1702776;84;21570;-70
2022/12/09 06:05:43;;;;;;;23.47;12.73;;;;;;;0.63;90.34;95200.72;1703006;84;21109;-69
2022/12/09 06:08:10;;;;;;;22.57;13.17;;;;;;;0.71;90.96;95195.66;1702788;84;21049;-66
2022/12/09 06:10:40;;;;;;;24.83;16.67;;;;;;;0.82;91.43;95197.95;1702670;84;21164;-66
2022/12/09 06:13:07;;;;;;;34.37;21.80;;;;;;;0.94;91.42;95195.94;1702676;84;21068;-69
2022/12/09 06:15:35;;;;;;;25.13;14.00;;;;;;;0.98;90.77;95193.40;1702734;84;21108;-75
2022/12/09 06:18:01;;;;;;;25.63;13.77;;;;;;;0.96;90.03;95189.91;1703465;84;21073;-68
2022/12/09 06:20:28;;;;;;;22.17;13.00;;;;;;;0.84;89.82;95186.72;1703319;84;21081;-76
2022/12/09 06:22:54;;;;;;;23.77;12.77;;;;;;;0.81;89.89;95189.29;1703281;84;21080;-72
2022/12/09 06:25:21;;;;;;;27.27;16.77;;;;;;;0.79;90.10;95196.19;1701851;84;21127;-72
2022/12/09 06:27:48;;;;;;;43.73;30.47;;;;;;;0.85;90.19;95199.28;1703028;84;21101;-69
2022/12/09 06:30:15;;;;;;;27.30;16.47;;;;;;;0.83;89.65;95197.98;1702166;84;21152;-72
2022/12/09 06:32:42;;;;;;;28.00;15.90;;;;;;;0.88;90.34;95199.73;1702159;84;21136;-76
2022/12/09 06:35:08;;;;;;;25.80;13.87;;;;;;;0.98;90.59;95195.09;1703209;84;21148;-71
2022/12/09 06:37:35;;;;;;;21.80;11.57;;;;;;;0.96;89.52;95211.09;1700734;83;21054;-71
2022/12/09 06:40:03;;;;;;;31.73;17.00;;;;;;;0.91;89.81;95205.86;1696973;84;20977;-67
2022/12/09 06:42:30;;;;;;;27.73;17.53;;;;;;;0.98;90.28;95202.89;1703395;84;21025;-71
2022/12/09 06:44:56;;;;;;;29.70;15.30;;;;;;;1.03;90.16;95209.02;1702659;84;21132;-66
2022/12/09 06:47:22;;;;;;;21.50;11.37;;;;;;;1.08;90.17;95209.53;1703417;84;21128;-72
2022/12/09 06:49:49;;;;;;;23.30;13.17;;;;;;;1.17;90.21;95198.80;1702623;84;21065;-68
2022/12/09 06:52:16;;;;;;;17.60;10.07;;;;;;;1.16;89.40;95196.63;1695883;84;21135;-74
2022/12/09 06:54:42;;;;;;;62.43;41.17;;;;;;;1.13;89.10;95188.77;1696700;83;21091;-70
2022/12/09 06:57:09;;;;;;;20.93;13.33;;;;;;;1.10;88.85;95182.69;1708009;83;21067;-69
2022/12/09 06:59:35;;;;;;;21.87;13.57;;;;;;;1.12;89.40;95177.09;1704915;84;21502;-76
2022/12/09 07:02:01;;;;;;;34.87;21.93;;;;;;;1.05;88.77;95161.84;1652092;87;21061;-70
2022/12/09 07:04:28;;;;;;;33.77;20.80;;;;;;;0.97;89.04;95168.69;1683296;85;20989;-68
2022/12/09 07:06:54;;;;;;;26.57;12.53;;;;;;;1.00;89.73;95192.09;1681503;85;21044;-70
2022/12/09 07:09:21;;;;;;;18.73;10.33;;;;;;;1.06;89.78;95185.69;1673355;85;21067;-77
2022/12/09 07:11:49;;;;;;;17.63;10.90;;;;;;;1.07;89.37;95177.89;1668176;86;21128;-68
2022/12/09 07:14:17;;;;;;;17.33;9.67;;;;;;;1.07;89.29;95161.44;1667179;85;21122;-71
2022/12/09 07:16:44;;;;;;;15.83;9.83;;;;;;;0.99;88.83;95157.89;1667697;86;21446;-68
2022/12/09 07:19:20;;;;;;;16.53;9.80;;;;;;;0.93;88.66;95153.91;1667539;85;21083;-67
2022/12/09 07:21:49;;;;;;;13.83;7.53;;;;;;;0.92;88.93;95154.34;1655180;85;21319;-71
2022/12/09 07:24:17;;;;;;;34.37;21.07;;;;;;;0.92;88.78;95154.78;1695237;84;21089;-72
2022/12/09 07:26:44;;;;;;;23.10;13.17;;;;;;;0.94;89.11;95156.54;1661973;85;21111;-70
2022/12/09 07:29:11;;;;;;;31.90;17.63;;;;;;;0.92;89.04;95160.84;1724762;83;21109;-72
2022/12/09 07:31:38;;;;;;;28.97;14.87;;;;;;;0.94;89.85;95154.37;1725388;83;21515;-71
2022/12/09 07:34:05;;;;;;;46.70;21.63;;;;;;;1.00;90.18;95163.52;1724389;83;21488;-72
2022/12/09 07:36:34;;;;;;;73.80;37.83;;;;;;;1.05;90.11;95166.61;1725276;83;21046;-69
2022/12/09 07:39:09;;;;;;;41.97;24.93;;;;;;;1.12;90.11;95158.89;1725507;83;21465;-69
2022/12/09 07:41:35;;;;;;;34.70;20.03;;;;;;;1.26;90.48;95162.09;1724674;83;21069;-71
2022/12/09 07:44:02;;;;;;;29.83;17.77;;;;;;;1.36;90.38;95150.45;1725506;83;21022;-67
2022/12/09 07:46:29;;;;;;;35.13;22.67;;;;;;;1.45;90.40;95149.25;1724874;83;20978;-70
2022/12/09 07:48:56;;;;;;;39.17;19.67;;;;;;;1.57;90.37;95155.01;1725175;83;21049;-68
2022/12/09 07:51:23;;;;;;;41.70;22.30;;;;;;;1.62;89.78;95159.81;1725019;83;21233;-79
2022/12/09 07:53:51;;;;;;;33.03;19.00;;;;;;;1.67;89.96;95149.02;1725549;83;21097;-68
2022/12/09 07:56:18;;;;;;;31.47;19.90;;;;;;;1.77;89.94;95159.94;1725462;83;21077;-71
2022/12/09 07:58:47;;;;;;;28.53;15.57;;;;;;;1.82;89.66;95144.38;1725085;83;21029;-71
2022/12/09 08:01:18;;;;;;;36.47;18.90;;;;;;;1.86;89.42;95147.42;1700769;83;21728;-70
2022/12/09 08:03:45;;;;;;;50.83;26.70;;;;;;;1.87;89.31;95150.05;1725757;83;21073;-67
2022/12/09 08:06:16;;;;;;;63.27;32.90;;;;;;;1.96;89.58;95154.44;1725704;83;21037;-68
2022/12/09 08:08:43;;;;;;;55.10;30.80;;;;;;;1.96;89.03;95146.63;1723588;83;21038;-71
2022/12/09 08:11:26;;;;;;;56.53;32.80;;;;;;;2.02;89.36;95137.59;1715195;83;21065;-67
2022/12/09 08:13:55;;;;;;;61.63;34.07;;;;;;;2.18;89.97;95137.25;1686696;84;21335;-71
2022/12/09 08:16:23;;;;;;;63.53;32.03;;;;;;;2.33;89.74;95137.34;1715456;84;21184;-73
2022/12/09 08:18:51;;;;;;;57.83;24.83;;;;;;;2.43;89.24;95133.05;1715314;83;21160;-68
2022/12/09 08:21:28;;;;;;;57.87;25.93;;;;;;;2.55;89.37;95129.21;1715606;84;21026;-69
2022/12/09 08:23:58;;;;;;;49.00;26.43;;;;;;;2.56;88.96;95138.75;1715771;84;21050;-70
2022/12/09 08:26:27;;;;;;;63.30;26.27;;;;;;;2.60;89.06;95136.61;1715417;83;21077;-68
2022/12/09 08:28:54;;;;;;;67.17;27.60;;;;;;;2.69;89.33;95132.30;1714704;83;21524;-66
2022/12/09 08:31:24;;;;;;;65.70;30.40;;;;;;;2.75;89.29;95134.95;1714935;83;21077;-67
2022/12/09 08:33:53;;;;;;;62.80;24.67;;;;;;;2.88;89.62;95131.52;1715574;83;21018;-67
2022/12/09 08:36:24;;;;;;;39.50;20.93;;;;;;;2.93;89.20;95130.23;1715289;83;21476;-67
2022/12/09 08:38:51;;;;;;;36.97;18.90;;;;;;;3.04;89.78;95122.00;1715948;83;22156;-72
2022/12/09 08:41:33;;;;;;;29.87;14.83;;;;;;;3.13;89.32;95121.17;1715924;83;21123;-69
2022/12/09 08:43:53;;;;;;;148.27;85.73;;;;;;;3.17;89.32;95124.20;1716008;83;21011;-74
2022/12/09 08:46:20;;;;;;;33.03;24.10;;;;;;;3.22;89.33;95119.87;1707419;83;21032;-69
2022/12/09 08:48:46;;;;;;;24.60;16.20;;;;;;;3.28;89.11;95118.59;1664994;84;20997;-70
2022/12/09 08:51:12;;;;;;;41.93;29.17;;;;;;;3.31;88.89;95113.38;1710005;83;21061;-71
2022/12/09 08:53:39;;;;;;;28.20;20.70;;;;;;;3.40;89.47;95112.09;1703321;84;21090;-71
2022/12/09 08:56:13;;;;;;;32.93;24.20;;;;;;;3.45;88.88;95109.47;1723218;83;21038;-71
2022/12/09 08:58:40;;;;;;;;;;;;;;;3.46;88.53;95109.92;1726051;83;21504;-69
2022/12/09 09:01:22;;;;;;;32.97;20.67;;;;;;;3.36;87.53;95111.64;1723591;83;20132;-67
2022/12/09 09:03:49;;;;;;;22.53;14.00;;;;;;;3.29;87.78;95108.59;1722086;83;21113;-69
2022/12/09 09:06:18;;;;;;;22.27;14.03;;;;;;;3.35;88.49;95091.67;1722666;83;21100;-68
2022/12/09 09:08:45;;;;;;;31.17;18.27;;;;;;;3.35;88.11;95089.06;1702965;84;21043;-68
2022/12/09 09:11:16;;;;;;;20.50;12.80;;;;;;;3.34;87.80;95091.21;1722952;83;21077;-70
2022/12/09 09:13:44;;;;;;;23.93;16.03;;;;;;;3.33;87.81;95084.27;1722246;83;21046;-73
2022/12/09 09:16:15;;;;;;;30.60;22.83;;;;;;;3.36;87.99;95072.53;1723557;83;21462;-69
2022/12/09 09:18:42;;;;;;;54.50;39.83;;;;;;;3.42;87.78;95071.22;1723780;83;20987;-67
2022/12/09 09:21:12;;;;;;;26.93;15.60;;;;;;;3.42;88.00;95078.18;1702678;84;21522;-67
2022/12/09 09:23:39;;;;;;;27.30;17.17;;;;;;;3.51;88.37;95071.67;1722719;83;20998;-68
2022/12/09 09:26:12;;;;;;;27.60;18.60;;;;;;;3.67;88.81;95070.78;1703256;84;21540;-71
2022/12/09 09:28:39;;;;;;;18.62;11.57;;;;;;;3.81;88.48;95064.27;1724089;83;20982;-72
2022/12/09 09:31:11;;;;;;;17.67;12.13;;;;;;;3.88;88.05;95058.58;1723502;83;21083;-66
2022/12/09 09:33:37;;;;;;;17.10;12.93;;;;;;;3.95;87.85;95056.41;1673422;84;21114;-73
2022/12/09 09:36:10;;;;;;;14.27;9.90;;;;;;;4.09;88.09;95045.51;1690982;83;21093;-69
2022/12/09 09:38:37;;;;;;;17.43;10.73;;;;;;;4.23;87.75;95033.70;1619719;87;21923;-70
2022/12/09 09:41:28;;;;;;;14.70;11.43;;;;;;;4.28;87.36;95034.59;1677665;85;21113;-69
2022/12/09 09:43:56;;;;;;;16.03;10.63;;;;;;;4.33;86.70;95031.52;1695894;85;21582;-66
2022/12/09 09:46:31;;;;;;;13.93;9.63;;;;;;;4.26;85.58;95028.49;1700841;83;21808;-65
2022/12/09 09:48:59;;;;;;;17.43;9.63;;;;;;;4.23;86.33;95024.56;1678927;85;21084;-65
2022/12/09 09:51:27;;;;;;;11.83;7.83;;;;;;;4.21;86.56;95030.66;1680021;85;21060;-67
2022/12/09 09:53:54;;;;;;;14.20;9.37;;;;;;;4.05;85.56;95033.32;1680635;85;21065;-67
2022/12/09 09:56:39;;;;;;;15.33;10.10;;;;;;;3.96;85.50;95031.20;1680513;85;21080;-66
2022/12/09 09:59:20;;;;;;;18.17;10.27;;;;;;;3.91;86.22;95031.20;1680371;85;21033;-69
2022/12/09 10:01:57;;;;;;;24.47;13.97;;;;;;;3.87;86.84;95022.94;1680539;85;21049;-72
2022/12/09 10:05:19;;;;;;;25.47;16.53;;;;;;;3.92;87.30;95026.84;1679485;85;21037;-71
2022/12/09 10:07:51;;;;;;;33.67;20.23;;;;;;;3.86;86.71;95027.73;1680757;85;21112;-69
2022/12/09 10:10:42;;;;;;;32.43;18.73;;;;;;;3.81;86.97;95013.38;1660034;85;21589;-73
2022/12/09 10:13:28;;;;;;;32.83;17.47;;;;;;;3.74;87.45;95019.48;1620299;88;21120;-69
2022/12/09 10:16:06;;;;;;;27.23;15.63;;;;;;;3.72;87.45;95013.39;1647200;86;21123;-70
2022/12/09 10:18:44;;;;;;;29.03;15.70;;;;;;;3.75;87.49;95008.16;1642598;87;21022;-69
2022/12/09 10:21:20;;;;;;;31.10;16.17;;;;;;;3.75;87.65;95004.69;1642267;87;21042;-70
2022/12/09 10:23:48;;;;;;;35.17;23.97;;;;;;;3.73;87.59;95003.81;1642040;87;21543;-70
2022/12/09 10:26:28;;;;;;;28.90;17.93;;;;;;;3.75;87.98;94999.02;1642409;87;21029;-70
2022/12/09 10:29:00;;;;;;;24.83;11.23;;;;;;;3.77;87.96;94993.81;1643440;87;21009;-69
2022/12/09 10:31:27;;;;;;;18.73;10.80;;;;;;;3.77;87.82;94992.51;1673321;85;21014;-70
2022/12/09 10:33:54;;;;;;;20.43;11.43;;;;;;;3.73;87.70;94991.66;1658432;85;20981;-68
2022/12/09 10:36:27;;;;;;;29.83;16.17;;;;;;;3.74;88.06;94986.00;1655647;86;20998;-70
2022/12/09 10:38:54;;;;;;;35.85;20.55;;;;;;;3.74;87.77;94985.56;1654813;86;21496;-70
2022/12/09 10:44:32;;;;;;;27.27;15.70;;;;;;;3.67;87.98;94979.47;1648953;86;21048;-71
2022/12/09 10:47:03;;;;;;;20.00;11.17;;;;;;;3.63;88.22;94974.29;1640741;87;21048;-71
2022/12/09 10:49:33;;;;;;;23.53;14.03;;;;;;;3.64;88.14;94981.23;1665334;86;21524;-70
2022/12/09 10:52:00;;;;;;;25.03;14.40;;;;;;;3.66;88.54;94973.84;1670094;86;21205;-69
2022/12/09 10:54:35;;;;;;;33.13;19.30;;;;;;;3.63;88.21;94959.50;1638574;87;21037;-70
2022/12/09 10:57:08;;;;;;;31.47;18.50;;;;;;;3.54;88.48;94964.72;1678966;85;21098;-70
2022/12/09 10:59:36;;;;;;;28.60;15.40;;;;;;;3.47;88.80;94962.55;1678722;85;21041;-70
2022/12/09 11:02:11;;;;;;;32.77;18.47;;;;;;;3.39;88.98;94963.00;1643361;87;21090;-70
2022/12/09 11:04:40;;;;;;;34.70;20.43;;;;;;;3.38;89.38;94957.81;1669897;86;21173;-70
2022/12/09 11:07:15;;;;;;;37.17;20.20;;;;;;;3.39;89.32;94946.05;1672540;86;21574;-69
2022/12/09 11:09:59;;;;;;;28.53;17.63;;;;;;;3.41;89.28;94948.67;1682864;84;21005;-70
2022/12/09 11:12:30;;;;;;;36.70;20.23;;;;;;;3.45;89.20;94925.61;1708480;84;21029;-69
2022/12/09 11:15:05;;;;;;;37.23;19.70;;;;;;;3.46;89.17;94936.05;1708999;84;20993;-70
2022/12/09 11:17:36;;;;;;;34.00;19.23;;;;;;;3.44;88.72;94944.30;1708764;84;21506;-70
2022/12/09 11:20:19;;;;;;;32.43;16.93;;;;;;;3.43;88.87;94933.89;1708679;84;20985;-70
2022/12/09 11:23:05;;;;;;;27.63;15.10;;;;;;;3.42;88.93;94937.35;1708899;84;20985;-70
2022/12/09 11:25:36;;;;;;;211.53;94.40;;;;;;;3.40;88.76;94929.55;1708594;84;21519;-70
2022/12/09 11:28:20;;;;;;;49.80;30.53;;;;;;;3.37;89.20;94923.02;1709162;84;20985;-70
2022/12/09 11:30:55;;;;;;;25.27;12.23;;;;;;;3.33;88.89;94930.43;1708745;84;21119;-69
2022/12/09 11:33:39;;;;;;;44.00;25.53;;;;;;;3.32;89.27;94919.98;1709095;84;21040;-69
2022/12/09 11:36:12;;;;;;;49.07;33.97;;;;;;;3.29;89.29;94919.56;1708502;84;21033;-69
2022/12/09 11:38:45;;;;;;;40.13;21.73;;;;;;;3.31;89.73;94918.27;1706841;84;21041;-69
2022/12/09 11:44:23;;;;;;;33.33;17.73;;;;;;;3.31;89.68;94908.70;1709106;84;20969;-69
2022/12/09 11:47:07;;;;;;;26.30;13.40;;;;;;;3.26;90.27;94911.75;1708953;84;21029;-69